createdAt,value
2022-10-07T00:02:33.851Z,6.72
2022-10-07T00:07:35.980Z,6.41
2022-10-07T00:12:37.756Z,6.54
2022-10-07T00:17:39.601Z,6.23
2022-10-07T00:22:41.420Z,6.33
2022-10-07T00:27:43.409Z,6.22
2022-10-07T00:32:45.465Z,6.33
2022-10-07T00:37:47.232Z,6.22
2022-10-07T00:42:49.092Z,6.24
2022-10-07T00:47:51.716Z,6.22
2022-10-07T00:52:57.627Z,6.26
2022-10-07T00:58:06.638Z,5.97
2022-10-07T01:03:08.684Z,6.00
2022-10-07T01:08:10.400Z,6.18
2022-10-07T01:13:27.616Z,6.12
2022-10-07T01:18:57.822Z,5.97
2022-10-07T01:24:22.602Z,6.03
2022-10-07T01:29:56.203Z,6.09
2022-10-07T01:35:00.921Z,5.98
2022-10-07T01:40:08.155Z,6.12
2022-10-07T01:45:14.531Z,5.89
2022-10-07T01:50:18.478Z,5.79
2022-10-07T01:55:22.945Z,5.72
2022-10-07T02:00:25.091Z,5.60
2022-10-07T02:05:47.385Z,5.73
2022-10-07T02:10:57.305Z,5.83
2022-10-07T02:16:20.077Z,5.76
2022-10-07T02:21:27.055Z,5.65
2022-10-07T02:26:31.054Z,5.67
2022-10-07T02:31:34.325Z,5.63
2022-10-07T02:36:40.810Z,5.66
2022-10-07T02:42:00.483Z,5.58
2022-10-07T02:47:11.525Z,5.50
2022-10-07T02:52:17.587Z,5.52
2022-10-07T02:57:23.376Z,5.32
2022-10-07T03:02:31.334Z,5.28
2022-10-07T03:07:35.331Z,5.44
2022-10-07T03:12:38.409Z,5.20
2022-10-07T03:17:40.662Z,5.18
2022-10-07T03:22:43.741Z,4.95
2022-10-07T03:27:48.505Z,5.14
2022-10-07T03:32:50.948Z,5.23
2022-10-07T03:37:53.570Z,5.11
2022-10-07T03:42:55.341Z,5.14
2022-10-07T03:47:58.215Z,5.13
2022-10-07T03:53:00.603Z,5.07
2022-10-07T03:58:02.809Z,5.19
2022-10-07T04:03:07.710Z,5.33
2022-10-07T04:08:12.229Z,5.18
2022-10-07T04:13:14.301Z,5.16
2022-10-07T04:18:16.638Z,4.98
2022-10-07T04:23:18.515Z,5.02
2022-10-07T04:28:24.322Z,5.07
2022-10-07T04:33:31.264Z,5.08
2022-10-07T04:38:34.444Z,4.88
2022-10-07T04:43:38.449Z,4.70
2022-10-07T04:48:45.607Z,4.78
2022-10-07T04:53:56.784Z,4.83
2022-10-07T04:59:03.857Z,4.91
2022-10-07T05:04:05.768Z,4.89
2022-10-07T05:09:08.544Z,4.95
2022-10-07T05:14:15.225Z,4.81
2022-10-07T05:19:17.283Z,4.80
2022-10-07T05:24:19.824Z,4.79
2022-10-07T05:29:23.529Z,5.00
2022-10-07T05:34:27.489Z,4.90
2022-10-07T05:39:30.437Z,4.97
2022-10-07T05:44:39.951Z,5.01
2022-10-07T05:49:41.972Z,5.08
2022-10-07T05:54:44.401Z,5.22
2022-10-07T05:59:47.945Z,5.26
2022-10-07T06:04:49.689Z,5.26
2022-10-07T06:10:10.795Z,5.26
2022-10-07T06:15:14.119Z,5.42
2022-10-07T06:20:19.014Z,5.47
2022-10-07T06:25:23.497Z,5.80
2022-10-07T06:30:26.227Z,5.80
2022-10-07T06:35:30.855Z,5.94
2022-10-07T06:40:33.537Z,6.06
2022-10-07T06:45:35.401Z,6.18
2022-10-07T06:50:37.569Z,6.22
2022-10-07T06:55:39.397Z,6.60
2022-10-07T07:00:41.631Z,6.71
2022-10-07T07:05:45.808Z,6.91
2022-10-07T07:10:52.209Z,7.02
2022-10-07T07:15:59.088Z,7.38
2022-10-07T07:21:04.914Z,7.65
2022-10-07T07:26:07.371Z,8.07
2022-10-07T07:31:12.875Z,7.70
2022-10-07T07:36:16.577Z,8.29
2022-10-07T07:41:27.199Z,8.73
2022-10-07T07:46:34.547Z,8.78
2022-10-07T07:51:36.808Z,11.51
2022-10-07T07:56:39.331Z,17.09
2022-10-07T08:01:41.317Z,23.51
2022-10-07T08:06:43.622Z,22.21
2022-10-07T08:11:45.521Z,19.99
2022-10-07T08:16:51.461Z,20.52
2022-10-07T08:21:54.381Z,22.47
2022-10-07T08:27:00.111Z,24.34
2022-10-07T08:32:01.852Z,25.25
2022-10-07T08:37:03.809Z,25.33
2022-10-07T08:42:37.601Z,29.11
2022-10-07T08:47:44.223Z,28.05
2022-10-07T08:52:53.445Z,25.89
2022-10-07T08:58:26.851Z,25.75
2022-10-07T09:03:28.466Z,26.51
2022-10-07T09:08:40.341Z,25.53
2022-10-07T09:14:12.386Z,23.52
2022-10-07T09:19:39.559Z,24.64
2022-10-07T09:29:51.397Z,23.52
2022-10-07T09:34:53.434Z,22.32
2022-10-07T09:39:57.982Z,22.00
2022-10-07T09:45:25.732Z,22.40
2022-10-07T09:50:44.024Z,22.90
2022-10-07T09:55:52.470Z,21.53
2022-10-07T10:00:56.753Z,21.71
2022-10-07T10:06:09.687Z,22.29
2022-10-07T10:11:20.569Z,25.37
2022-10-07T10:16:25.457Z,26.15
2022-10-07T10:21:36.897Z,31.39
2022-10-07T10:27:03.732Z,27.27
2022-10-07T10:32:11.295Z,24.60
2022-10-07T10:37:18.506Z,22.63
2022-10-07T10:42:35.485Z,22.82
2022-10-07T10:48:13.568Z,22.45
2022-10-07T10:53:34.534Z,22.13
2022-10-07T10:58:48.123Z,24.21
2022-10-07T11:04:17.286Z,24.15
2022-10-07T11:09:39.773Z,22.82
2022-10-07T11:14:49.011Z,23.62
2022-10-07T11:20:05.933Z,25.05
2022-10-07T11:25:23.274Z,23.30
2022-10-07T11:30:31.954Z,25.38
2022-10-07T11:35:57.476Z,23.69
2022-10-07T11:41:48.888Z,26.33
2022-10-07T11:46:51.822Z,26.90
2022-10-07T11:52:05.151Z,30.07
2022-10-07T11:57:06.992Z,30.19
2022-10-07T12:02:30.825Z,31.85
2022-10-07T12:07:32.900Z,25.37
2022-10-07T12:12:46.762Z,24.46
2022-10-07T12:17:58.891Z,25.64
2022-10-07T12:23:18.863Z,24.34
2022-10-07T12:28:23.593Z,24.74
2022-10-07T12:33:43.029Z,24.76
2022-10-07T12:38:59.237Z,25.63
2022-10-07T12:44:24.030Z,25.20
2022-10-07T12:49:41.049Z,23.02
2022-10-07T12:54:49.873Z,24.91
2022-10-07T13:00:13.553Z,23.93
2022-10-07T13:05:39.597Z,25.19
2022-10-07T13:10:56.492Z,24.10
2022-10-07T13:16:47.884Z,24.32
2022-10-07T13:22:09.540Z,23.25
2022-10-07T13:27:12.095Z,22.94
2022-10-07T13:32:15.399Z,22.83
2022-10-07T13:37:37.736Z,22.67
2022-10-07T13:42:39.430Z,22.88
2022-10-07T13:47:43.469Z,22.36
2022-10-07T13:52:48.255Z,22.81
2022-10-07T13:57:50.513Z,23.25
2022-10-07T14:02:52.808Z,23.67
2022-10-07T14:07:56.999Z,23.25
2022-10-07T14:13:03.334Z,22.84
2022-10-07T14:18:05.632Z,23.17
2022-10-07T14:23:31.252Z,22.56
2022-10-07T14:28:34.950Z,21.58
2022-10-07T14:34:05.393Z,21.92
2022-10-07T14:39:30.921Z,20.96
2022-10-07T14:44:32.664Z,20.58
2022-10-07T14:49:34.358Z,20.62
2022-10-07T14:54:36.082Z,20.05
2022-10-07T14:59:37.952Z,20.03
2022-10-07T15:04:40.322Z,19.37
2022-10-07T15:09:43.656Z,19.02
2022-10-07T15:14:45.343Z,18.71
2022-10-07T15:19:47.016Z,18.46
2022-10-07T15:24:48.961Z,18.27
2022-10-07T15:29:53.793Z,18.28
2022-10-07T15:34:55.641Z,18.29
2022-10-07T15:39:58.838Z,18.24
2022-10-07T15:45:00.504Z,18.04
2022-10-07T15:50:02.260Z,17.80
2022-10-07T15:55:07.949Z,17.62
2022-10-07T16:00:10.805Z,17.79
2022-10-07T16:05:15.147Z,17.58
2022-10-07T16:10:16.816Z,17.39
2022-10-07T16:15:18.484Z,17.25
2022-10-07T16:20:20.966Z,16.73
2022-10-07T16:25:22.624Z,16.81
2022-10-07T16:30:42.696Z,16.65
2022-10-07T16:35:44.425Z,16.67
2022-10-07T16:40:53.921Z,16.69
2022-10-07T16:45:55.578Z,16.69
2022-10-07T16:50:58.277Z,16.33
2022-10-07T16:56:04.721Z,16.45
2022-10-07T17:01:12.815Z,16.36
2022-10-07T17:06:16.246Z,16.30
2022-10-07T17:11:29.281Z,16.31
2022-10-07T17:16:37.855Z,16.39
2022-10-07T17:21:41.913Z,16.08
2022-10-07T17:26:44.679Z,15.79
2022-10-07T17:31:50.280Z,15.97
2022-10-07T17:36:52.102Z,16.10
2022-10-07T17:41:53.797Z,15.97
2022-10-07T17:46:58.622Z,15.76
2022-10-07T17:52:00.321Z,15.67
2022-10-07T17:57:01.984Z,15.40
2022-10-07T18:02:03.652Z,15.30
2022-10-07T18:07:05.306Z,15.67
2022-10-07T18:12:25.685Z,15.28
2022-10-07T18:17:27.430Z,15.03
2022-10-07T18:22:29.098Z,15.04
2022-10-07T18:27:31.164Z,14.76
2022-10-07T18:32:33.072Z,14.54
2022-10-07T18:37:34.882Z,14.34
2022-10-07T18:42:37.701Z,13.86
2022-10-07T18:47:39.367Z,14.01
2022-10-07T18:52:41.280Z,13.74
2022-10-07T18:57:43.027Z,13.59
2022-10-07T19:02:46.145Z,13.36
2022-10-07T19:07:48.220Z,13.12
2022-10-07T19:13:08.552Z,13.23
2022-10-07T19:18:10.637Z,12.82
2022-10-07T19:23:12.326Z,12.43
2022-10-07T19:28:14.137Z,12.48
2022-10-07T19:33:16.174Z,12.63
2022-10-07T19:38:17.831Z,12.29
2022-10-07T19:43:19.525Z,12.19
2022-10-07T19:48:21.654Z,12.04
2022-10-07T19:53:23.325Z,12.01
2022-10-07T19:58:27.057Z,12.05
2022-10-07T20:03:28.729Z,11.91
2022-10-07T20:08:33.213Z,11.97
2022-10-07T20:13:36.138Z,11.83
2022-10-07T20:18:40.373Z,11.88
2022-10-07T20:23:44.547Z,11.94
2022-10-07T20:28:48.308Z,11.77
2022-10-07T20:33:52.690Z,11.66
2022-10-07T20:39:38.182Z,11.73
2022-10-07T20:44:40.081Z,11.62
2022-10-07T20:49:42.365Z,11.51
2022-10-07T20:54:47.849Z,11.75
2022-10-07T20:59:49.821Z,11.54
2022-10-07T21:04:51.589Z,11.54
2022-10-07T21:09:53.296Z,11.51
2022-10-07T21:14:56.322Z,11.41
2022-10-07T21:19:57.989Z,11.45
2022-10-07T21:24:59.637Z,11.57
2022-10-07T21:30:01.307Z,11.55
2022-10-07T21:35:02.994Z,11.47
2022-10-07T21:40:04.946Z,11.47
2022-10-07T21:45:07.199Z,11.46
2022-10-07T21:50:11.265Z,11.40
2022-10-07T21:55:12.933Z,11.46
2022-10-07T22:00:16.012Z,11.52
2022-10-07T22:05:17.750Z,11.50
2022-10-07T22:10:19.417Z,11.29
2022-10-07T22:15:21.068Z,11.25
2022-10-07T22:20:22.749Z,11.12
2022-10-07T22:25:24.408Z,10.94
2022-10-07T22:30:26.080Z,10.88
2022-10-07T22:35:27.741Z,10.90
2022-10-07T22:40:29.455Z,10.61
2022-10-07T22:45:32.233Z,10.47
2022-10-07T22:50:33.979Z,10.32
2022-10-07T22:55:37.242Z,10.33
2022-10-07T23:00:38.912Z,10.53
2022-10-07T23:05:40.572Z,10.51
2022-10-07T23:10:42.987Z,10.55
2022-10-07T23:15:46.748Z,10.60
2022-10-07T23:20:48.797Z,10.29
2022-10-07T23:25:51.878Z,10.03
2022-10-07T23:30:53.628Z,9.95
2022-10-07T23:35:57.160Z,9.92
2022-10-07T23:40:59.609Z,9.96
2022-10-07T23:46:01.794Z,9.85
2022-10-07T23:51:05.048Z,9.95
2022-10-07T23:56:07.365Z,9.96
